createdAt,value
2022-08-17T00:00:08.333Z,47.92
2022-08-17T00:05:15.576Z,48.16
2022-08-17T00:10:22.753Z,48.45
2022-08-17T00:15:29.954Z,48.72
2022-08-17T00:20:37.220Z,48.62
2022-08-17T00:25:44.437Z,48.90
2022-08-17T00:30:53.510Z,49.26
2022-08-17T00:35:58.806Z,49.41
2022-08-17T00:41:06.076Z,49.32
2022-08-17T00:46:13.249Z,49.38
2022-08-17T00:51:20.464Z,49.26
2022-08-17T00:56:27.625Z,49.45
2022-08-17T01:01:34.941Z,49.56
2022-08-17T01:06:42.082Z,49.64
2022-08-17T01:11:49.365Z,49.69
2022-08-17T01:16:56.639Z,49.78
2022-08-17T01:22:03.862Z,49.74
2022-08-17T01:27:11.051Z,49.95
2022-08-17T01:32:18.320Z,50.13
2022-08-17T01:37:25.567Z,50.23
2022-08-17T01:42:32.720Z,50.18
2022-08-17T01:47:40.000Z,50.37
2022-08-17T01:52:47.365Z,50.19
2022-08-17T01:57:54.744Z,50.23
2022-08-17T02:03:01.966Z,50.16
2022-08-17T02:08:09.227Z,50.10
2022-08-17T02:13:17.239Z,49.92
2022-08-17T02:18:24.593Z,49.83
2022-08-17T02:23:31.943Z,49.88
2022-08-17T02:28:39.199Z,50.24
2022-08-17T02:33:46.404Z,50.22
2022-08-17T02:38:53.690Z,50.26
2022-08-17T02:44:01.048Z,50.37
2022-08-17T02:49:08.224Z,50.32
2022-08-17T02:54:40.471Z,50.22
2022-08-17T02:59:22.901Z,50.27
2022-08-17T03:04:30.402Z,50.20
2022-08-17T03:09:37.724Z,50.27
2022-08-17T03:14:45.017Z,50.28
2022-08-17T03:19:52.548Z,50.39
2022-08-17T03:24:59.812Z,50.41
2022-08-17T03:30:07.075Z,50.49
2022-08-17T03:35:14.260Z,50.59
2022-08-17T03:40:34.574Z,50.78
2022-08-17T03:45:28.634Z,50.65
2022-08-17T03:50:35.945Z,50.55
2022-08-17T03:55:43.109Z,50.78
2022-08-17T04:00:50.267Z,50.89
2022-08-17T04:05:57.466Z,50.98
2022-08-17T04:11:04.683Z,50.73
2022-08-17T04:16:11.839Z,51.30
2022-08-17T04:21:19.095Z,50.92
2022-08-17T04:26:52.037Z,50.84
2022-08-17T04:31:33.510Z,50.49
2022-08-17T04:36:40.697Z,50.73
2022-08-17T04:41:47.908Z,51.00
2022-08-17T04:46:55.082Z,51.22
2022-08-17T04:52:04.593Z,51.40
2022-08-17T04:57:09.462Z,51.35
2022-08-17T05:02:16.692Z,51.46
2022-08-17T05:07:27.218Z,51.47
2022-08-17T05:12:31.143Z,51.61
2022-08-17T05:17:38.373Z,51.63
2022-08-17T05:22:45.512Z,51.45
2022-08-17T05:27:52.732Z,51.80
2022-08-17T05:32:59.899Z,52.26
2022-08-17T05:38:07.082Z,52.30
2022-08-17T05:43:14.395Z,52.59
2022-08-17T05:48:21.605Z,52.44
2022-08-17T05:53:28.797Z,53.09
2022-08-17T05:58:36.052Z,53.25
2022-08-17T06:03:43.281Z,52.82
2022-08-17T06:08:51.437Z,52.81
2022-08-17T06:13:58.006Z,53.25
2022-08-17T06:19:05.297Z,52.96
2022-08-17T06:24:12.700Z,53.17
2022-08-17T06:29:20.230Z,53.51
2022-08-17T06:34:27.511Z,54.05
2022-08-17T06:39:34.832Z,54.63
2022-08-17T06:44:50.979Z,54.46
2022-08-17T06:49:55.082Z,54.60
2022-08-17T06:54:57.231Z,54.82
2022-08-17T07:00:04.505Z,53.99
2022-08-17T07:05:11.686Z,53.61
2022-08-17T07:10:18.912Z,53.46
2022-08-17T07:15:26.166Z,53.21
2022-08-17T07:20:33.334Z,53.19
2022-08-17T07:25:40.547Z,54.63
2022-08-17T07:30:47.824Z,55.66
2022-08-17T07:35:55.070Z,55.34
2022-08-17T07:41:02.680Z,55.56
2022-08-17T07:46:09.464Z,56.11
2022-08-17T07:51:16.660Z,55.86
2022-08-17T07:56:23.917Z,56.61
2022-08-17T08:01:41.575Z,56.81
2022-08-17T08:06:38.391Z,56.73
2022-08-17T08:11:45.596Z,56.44
2022-08-17T08:16:52.844Z,56.82
2022-08-17T08:22:00.072Z,56.56
2022-08-17T08:27:07.330Z,56.49
2022-08-17T08:32:14.540Z,56.51
2022-08-17T08:37:32.735Z,56.47
2022-08-17T08:42:29.186Z,56.79
2022-08-17T08:47:36.375Z,56.25
2022-08-17T08:52:43.625Z,56.30
2022-08-17T08:57:51.049Z,56.14
2022-08-17T09:02:58.057Z,55.99
2022-08-17T09:08:05.296Z,55.13
2022-08-17T09:13:12.506Z,55.44
2022-08-17T09:19:00.247Z,54.68
2022-08-17T09:23:26.973Z,54.43
2022-08-17T09:28:34.127Z,53.70
2022-08-17T09:33:41.358Z,53.35
2022-08-17T09:38:48.548Z,53.74
2022-08-17T09:43:55.797Z,52.71
2022-08-17T09:49:03.028Z,52.48
2022-08-17T09:54:37.660Z,52.59
2022-08-17T09:59:17.479Z,51.62
2022-08-17T10:04:29.303Z,51.83
2022-08-17T10:09:31.963Z,52.03
2022-08-17T10:14:44.164Z,52.05
2022-08-17T10:19:46.541Z,52.29
2022-08-17T10:25:21.174Z,52.11
2022-08-17T10:30:01.002Z,51.74
2022-08-17T10:35:08.148Z,51.49
2022-08-17T10:40:15.534Z,51.06
2022-08-17T10:45:22.549Z,50.86
2022-08-17T10:50:29.754Z,51.12
2022-08-17T10:55:36.958Z,50.71
2022-08-17T11:00:44.235Z,49.93
2022-08-17T11:05:51.392Z,49.92
2022-08-17T11:10:58.565Z,50.52
2022-08-17T11:16:08.437Z,50.10
2022-08-17T11:21:12.988Z,49.66
2022-08-17T11:26:20.147Z,49.19
2022-08-17T11:31:38.360Z,48.81
2022-08-17T11:36:34.686Z,48.59
2022-08-17T11:41:41.887Z,48.66
2022-08-17T11:46:51.721Z,48.68
2022-08-17T11:51:56.381Z,48.45
2022-08-17T11:57:03.654Z,48.53
2022-08-17T12:02:11.005Z,48.78
2022-08-17T12:07:18.159Z,48.53
2022-08-17T12:12:25.378Z,48.90
2022-08-17T12:17:39.767Z,48.08
2022-08-17T12:22:39.743Z,48.42
2022-08-17T12:28:04.883Z,48.65
2022-08-17T12:32:54.214Z,48.42
2022-08-17T12:38:01.411Z,48.84
2022-08-17T12:43:08.635Z,48.49
2022-08-17T12:48:16.004Z,48.87
2022-08-17T12:53:23.179Z,48.32
2022-08-17T12:58:30.368Z,47.63
2022-08-17T13:03:37.579Z,47.71
2022-08-17T13:08:44.804Z,48.05
2022-08-17T13:13:52.030Z,47.72
2022-08-17T13:18:59.300Z,47.30
2022-08-17T13:24:06.514Z,47.26
2022-08-17T13:29:13.784Z,46.61
2022-08-17T13:34:20.965Z,46.71
2022-08-17T13:39:28.227Z,46.93
2022-08-17T13:44:35.418Z,47.15
2022-08-17T13:49:48.456Z,46.62
2022-08-17T13:54:49.967Z,46.70
2022-08-17T13:59:57.160Z,47.14
2022-08-17T14:05:06.284Z,46.85
2022-08-17T14:10:11.711Z,46.87
2022-08-17T14:15:18.944Z,46.75
2022-08-17T14:20:26.226Z,47.27
2022-08-17T14:25:33.400Z,47.27
2022-08-17T14:30:40.621Z,47.40
2022-08-17T14:35:47.795Z,47.33
2022-08-17T14:40:55.179Z,47.51
2022-08-17T14:46:02.437Z,47.60
2022-08-17T14:51:09.732Z,47.70
2022-08-17T14:56:16.947Z,47.70
2022-08-17T15:01:24.255Z,47.62
2022-08-17T15:06:31.420Z,47.65
2022-08-17T15:11:38.633Z,47.65
2022-08-17T15:16:45.820Z,47.69
2022-08-17T15:21:53.777Z,47.82
2022-08-17T15:27:01.037Z,48.01
2022-08-17T15:32:08.218Z,48.13
2022-08-17T15:37:15.433Z,48.33
2022-08-17T15:42:22.572Z,48.49
2022-08-17T15:47:29.787Z,48.64
2022-08-17T15:52:36.972Z,48.94
2022-08-17T15:57:44.298Z,48.83
2022-08-17T16:03:45.261Z,49.06
2022-08-17T16:08:00.009Z,49.49
2022-08-17T16:13:17.145Z,49.97
2022-08-17T16:18:14.428Z,50.35
2022-08-17T16:23:21.734Z,50.87
2022-08-17T16:28:35.676Z,51.16
2022-08-17T16:33:36.256Z,51.59
2022-08-17T16:38:43.549Z,51.89
2022-08-17T16:43:50.939Z,52.24
2022-08-17T16:48:58.232Z,51.91
2022-08-17T16:54:05.451Z,52.52
2022-08-17T16:59:30.361Z,52.56
2022-08-17T17:04:20.629Z,52.77
2022-08-17T17:09:27.832Z,52.99
2022-08-17T17:14:35.072Z,52.77
2022-08-17T17:19:42.967Z,52.85
2022-08-17T17:24:50.264Z,53.30
2022-08-17T17:29:56.694Z,53.02
2022-08-17T17:35:03.919Z,53.24
2022-08-17T17:40:11.128Z,53.43
2022-08-17T17:45:18.367Z,53.07
2022-08-17T17:50:25.816Z,53.44
2022-08-17T17:55:33.043Z,53.30
2022-08-17T18:00:40.221Z,53.27
2022-08-17T18:05:47.464Z,53.64
2022-08-17T18:10:54.749Z,53.76
2022-08-17T18:16:01.941Z,54.20
2022-08-17T18:21:09.150Z,53.78
2022-08-17T18:26:16.327Z,55.09
2022-08-17T18:31:23.573Z,53.45
2022-08-17T18:36:30.782Z,54.21
2022-08-17T18:41:38.065Z,54.75
2022-08-17T18:46:45.294Z,53.86
2022-08-17T18:51:52.502Z,53.21
2022-08-17T18:56:59.731Z,53.77
2022-08-17T19:02:12.031Z,54.46
2022-08-17T19:07:14.120Z,54.94
2022-08-17T19:12:24.955Z,54.68
2022-08-17T19:17:28.554Z,55.93
2022-08-17T19:22:35.778Z,56.98
2022-08-17T19:27:46.389Z,56.56
2022-08-17T19:32:50.296Z,54.92
2022-08-17T19:37:57.887Z,53.97
2022-08-17T19:43:05.231Z,53.93
2022-08-17T19:48:12.559Z,53.94
2022-08-17T19:53:19.822Z,54.08
2022-08-17T19:58:27.101Z,54.22
2022-08-17T20:03:34.948Z,54.13
2022-08-17T20:08:42.183Z,53.87
2022-08-17T20:13:49.545Z,53.44
2022-08-17T20:18:56.834Z,52.99
2022-08-17T20:24:04.012Z,52.59
2022-08-17T20:29:11.212Z,52.29
2022-08-17T20:34:19.240Z,52.16
2022-08-17T20:39:26.524Z,52.12
2022-08-17T20:44:33.717Z,52.07
2022-08-17T20:49:40.969Z,51.32
2022-08-17T20:54:48.264Z,51.22
2022-08-17T20:59:55.552Z,51.36
2022-08-17T21:05:06.881Z,51.12
2022-08-17T21:10:10.034Z,50.89
2022-08-17T21:15:18.216Z,50.76
2022-08-17T21:20:25.511Z,50.64
2022-08-17T21:25:32.746Z,50.53
2022-08-17T21:30:39.945Z,50.42
2022-08-17T21:35:47.145Z,49.88
2022-08-17T21:40:55.043Z,50.20
2022-08-17T21:46:02.173Z,50.61
2022-08-17T21:51:09.484Z,50.83
2022-08-17T21:56:16.663Z,51.36
2022-08-17T22:01:23.985Z,52.44
2022-08-17T22:06:31.027Z,53.04
2022-08-17T22:11:38.201Z,53.11
2022-08-17T22:16:45.395Z,53.00
2022-08-17T22:21:52.605Z,52.83
2022-08-17T22:26:59.829Z,52.59
2022-08-17T22:32:07.075Z,52.32
2022-08-17T22:37:14.247Z,52.16
2022-08-17T22:42:21.808Z,52.09
2022-08-17T22:47:29.041Z,51.93
2022-08-17T22:52:36.323Z,52.49
2022-08-17T22:57:43.591Z,53.49
2022-08-17T23:02:55.068Z,53.71
2022-08-17T23:07:58.082Z,52.65
2022-08-17T23:13:05.336Z,51.93
2022-08-17T23:18:12.572Z,51.95
2022-08-17T23:23:23.549Z,52.05
2022-08-17T23:28:27.004Z,51.61
2022-08-17T23:33:34.180Z,51.80
2022-08-17T23:38:41.390Z,51.65
2022-08-17T23:43:54.878Z,51.67
2022-08-17T23:49:02.052Z,51.51
2022-08-17T23:54:09.238Z,51.56
2022-08-17T23:59:17.147Z,51.46
